METAR Data
IDs: Format: Raw Decoded Include TAF

Data at: 0021 UTC 30 May 2020

PAIN 292356Z AUTO 05006KT 10SM BKN100 BKN120 20/00 A2992 RMK AO2 SLP144 T02000000 10206 20133 58012